sensor_id;sensor_type;location;lat;lon;timestamp;P1;durP1;ratioP1;P2;durP2;ratioP2
74223;SDS011;62585;49.706;18.216;2022-10-31T00:02:03;3.95;;;2.05;;
74223;SDS011;62585;49.706;18.216;2022-10-31T00:04:28;1.38;;;0.77;;
74223;SDS011;62585;49.706;18.216;2022-10-31T00:06:54;0.20;;;0.20;;
74223;SDS011;62585;49.706;18.216;2022-10-31T00:09:20;1.65;;;1.17;;
74223;SDS011;62585;49.706;18.216;2022-10-31T00:11:45;1.85;;;1.75;;
74223;SDS011;62585;49.706;18.216;2022-10-31T00:14:11;2.67;;;2.47;;
74223;SDS011;62585;49.706;18.216;2022-10-31T00:16:37;2.83;;;1.05;;
74223;SDS011;62585;49.706;18.216;2022-10-31T00:19:03;2.03;;;1.90;;
74223;SDS011;62585;49.706;18.216;2022-10-31T00:21:32;0.00;;;0.00;;
74223;SDS011;62585;49.706;18.216;2022-10-31T00:23:58;7.95;;;2.33;;
74223;SDS011;62585;49.706;18.216;2022-10-31T00:26:24;0.77;;;0.75;;
74223;SDS011;62585;49.706;18.216;2022-10-31T00:28:51;2.95;;;1.95;;
74223;SDS011;62585;49.706;18.216;2022-10-31T00:31:17;0.17;;;0.17;;
74223;SDS011;62585;49.706;18.216;2022-10-31T00:33:43;0.50;;;0.50;;
74223;SDS011;62585;49.706;18.216;2022-10-31T00:36:14;1.70;;;1.63;;
74223;SDS011;62585;49.706;18.216;2022-10-31T00:38:42;0.50;;;0.50;;
74223;SDS011;62585;49.706;18.216;2022-10-31T00:43:35;0.93;;;0.77;;
74223;SDS011;62585;49.706;18.216;2022-10-31T00:46:00;1.30;;;1.20;;
74223;SDS011;62585;49.706;18.216;2022-10-31T00:48:26;4.28;;;2.13;;
74223;SDS011;62585;49.706;18.216;2022-10-31T00:50:52;3.50;;;1.27;;
74223;SDS011;62585;49.706;18.216;2022-10-31T00:53:18;0.03;;;0.03;;
74223;SDS011;62585;49.706;18.216;2022-10-31T00:55:43;5.75;;;3.58;;
74223;SDS011;62585;49.706;18.216;2022-10-31T00:58:09;1.10;;;1.00;;
74223;SDS011;62585;49.706;18.216;2022-10-31T01:00:35;3.85;;;2.08;;
74223;SDS011;62585;49.706;18.216;2022-10-31T01:03:00;1.20;;;1.10;;
74223;SDS011;62585;49.706;18.216;2022-10-31T01:05:26;2.78;;;2.03;;
74223;SDS011;62585;49.706;18.216;2022-10-31T01:07:52;1.33;;;1.25;;
74223;SDS011;62585;49.706;18.216;2022-10-31T01:10:18;0.55;;;0.55;;
74223;SDS011;62585;49.706;18.216;2022-10-31T01:12:44;0.40;;;0.40;;
74223;SDS011;62585;49.706;18.216;2022-10-31T01:15:12;2.22;;;0.65;;
74223;SDS011;62585;49.706;18.216;2022-10-31T01:17:39;0.50;;;0.50;;
74223;SDS011;62585;49.706;18.216;2022-10-31T01:20:06;1.55;;;1.45;;
74223;SDS011;62585;49.706;18.216;2022-10-31T01:22:33;0.10;;;0.10;;
74223;SDS011;62585;49.706;18.216;2022-10-31T01:24:59;0.00;;;0.00;;
74223;SDS011;62585;49.706;18.216;2022-10-31T01:27:25;0.10;;;0.10;;
74223;SDS011;62585;49.706;18.216;2022-10-31T01:29:51;1.20;;;1.00;;
74223;SDS011;62585;49.706;18.216;2022-10-31T01:32:17;0.00;;;0.00;;
74223;SDS011;62585;49.706;18.216;2022-10-31T01:34:42;0.57;;;0.57;;
74223;SDS011;62585;49.706;18.216;2022-10-31T01:37:08;0.15;;;0.15;;
74223;SDS011;62585;49.706;18.216;2022-10-31T01:39:34;0.52;;;0.52;;
74223;SDS011;62585;49.706;18.216;2022-10-31T01:41:59;0.60;;;0.60;;
74223;SDS011;62585;49.706;18.216;2022-10-31T01:49:45;0.20;;;0.20;;
74223;SDS011;62585;49.706;18.216;2022-10-31T01:52:16;0.10;;;0.10;;
74223;SDS011;62585;49.706;18.216;2022-10-31T01:54:50;0.90;;;0.85;;
74223;SDS011;62585;49.706;18.216;2022-10-31T01:57:18;1.10;;;1.10;;
74223;SDS011;62585;49.706;18.216;2022-10-31T01:59:49;1.35;;;1.35;;
74223;SDS011;62585;49.706;18.216;2022-10-31T02:02:16;0.05;;;0.05;;
74223;SDS011;62585;49.706;18.216;2022-10-31T02:04:43;0.20;;;0.20;;
74223;SDS011;62585;49.706;18.216;2022-10-31T02:07:10;0.10;;;0.10;;
74223;SDS011;62585;49.706;18.216;2022-10-31T02:09:40;2.53;;;2.28;;
74223;SDS011;62585;49.706;18.216;2022-10-31T02:12:06;0.10;;;0.10;;
74223;SDS011;62585;49.706;18.216;2022-10-31T02:14:35;0.00;;;0.00;;
74223;SDS011;62585;49.706;18.216;2022-10-31T02:17:01;0.08;;;0.08;;
74223;SDS011;62585;49.706;18.216;2022-10-31T02:30:21;0.08;;;0.08;;
74223;SDS011;62585;49.706;18.216;2022-10-31T02:35:50;0.00;;;0.00;;
74223;SDS011;62585;49.706;18.216;2022-10-31T02:42:32;0.25;;;0.25;;
74223;SDS011;62585;49.706;18.216;2022-10-31T02:47:53;0.00;;;0.00;;
74223;SDS011;62585;49.706;18.216;2022-10-31T02:50:25;0.45;;;0.45;;
74223;SDS011;62585;49.706;18.216;2022-10-31T02:52:56;0.10;;;0.10;;
74223;SDS011;62585;49.706;18.216;2022-10-31T02:57:47;0.10;;;0.10;;
74223;SDS011;62585;49.706;18.216;2022-10-31T03:00:13;0.10;;;0.10;;
74223;SDS011;62585;49.706;18.216;2022-10-31T03:10:46;0.25;;;0.25;;
74223;SDS011;62585;49.706;18.216;2022-10-31T03:13:43;0.10;;;0.10;;
74223;SDS011;62585;49.706;18.216;2022-10-31T03:16:23;1.25;;;0.98;;
74223;SDS011;62585;49.706;18.216;2022-10-31T03:21:30;0.47;;;0.47;;
74223;SDS011;62585;49.706;18.216;2022-10-31T03:24:02;6.18;;;3.58;;
74223;SDS011;62585;49.706;18.216;2022-10-31T03:26:30;1.27;;;0.70;;
74223;SDS011;62585;49.706;18.216;2022-10-31T03:29:03;0.00;;;0.00;;
74223;SDS011;62585;49.706;18.216;2022-10-31T03:31:39;7.47;;;1.98;;
74223;SDS011;62585;49.706;18.216;2022-10-31T03:34:12;3.15;;;1.48;;
74223;SDS011;62585;49.706;18.216;2022-10-31T03:36:38;0.13;;;0.13;;
74223;SDS011;62585;49.706;18.216;2022-10-31T03:39:07;2.60;;;0.77;;
74223;SDS011;62585;49.706;18.216;2022-10-31T03:41:39;0.15;;;0.15;;
74223;SDS011;62585;49.706;18.216;2022-10-31T03:44:09;2.33;;;1.45;;
74223;SDS011;62585;49.706;18.216;2022-10-31T03:46:39;1.15;;;0.90;;
74223;SDS011;62585;49.706;18.216;2022-10-31T03:49:05;0.20;;;0.20;;
74223;SDS011;62585;49.706;18.216;2022-10-31T03:59:50;0.10;;;0.10;;
74223;SDS011;62585;49.706;18.216;2022-10-31T04:02:20;0.20;;;0.20;;
74223;SDS011;62585;49.706;18.216;2022-10-31T04:04:51;4.32;;;1.52;;
74223;SDS011;62585;49.706;18.216;2022-10-31T04:07:17;1.75;;;1.08;;
74223;SDS011;62585;49.706;18.216;2022-10-31T04:09:46;3.20;;;1.55;;
74223;SDS011;62585;49.706;18.216;2022-10-31T04:12:14;11.13;;;2.20;;
74223;SDS011;62585;49.706;18.216;2022-10-31T04:14:43;1.63;;;0.50;;
74223;SDS011;62585;49.706;18.216;2022-10-31T04:17:12;3.83;;;2.42;;
74223;SDS011;62585;49.706;18.216;2022-10-31T04:19:41;1.45;;;1.02;;
74223;SDS011;62585;49.706;18.216;2022-10-31T04:22:07;2.53;;;1.75;;
74223;SDS011;62585;49.706;18.216;2022-10-31T04:24:33;2.30;;;1.80;;
74223;SDS011;62585;49.706;18.216;2022-10-31T04:26:59;1.42;;;1.35;;
74223;SDS011;62585;49.706;18.216;2022-10-31T04:29:24;1.00;;;0.68;;
74223;SDS011;62585;49.706;18.216;2022-10-31T04:31:50;0.13;;;0.13;;
74223;SDS011;62585;49.706;18.216;2022-10-31T04:34:16;0.80;;;0.80;;
74223;SDS011;62585;49.706;18.216;2022-10-31T04:36:41;2.20;;;2.10;;
74223;SDS011;62585;49.706;18.216;2022-10-31T04:39:07;1.80;;;1.30;;
74223;SDS011;62585;49.706;18.216;2022-10-31T04:41:33;1.38;;;0.98;;
74223;SDS011;62585;49.706;18.216;2022-10-31T04:43:58;0.22;;;0.22;;
74223;SDS011;62585;49.706;18.216;2022-10-31T04:46:24;2.33;;;0.77;;
74223;SDS011;62585;49.706;18.216;2022-10-31T04:48:49;0.80;;;0.55;;
74223;SDS011;62585;49.706;18.216;2022-10-31T04:51:15;0.85;;;0.85;;
74223;SDS011;62585;49.706;18.216;2022-10-31T04:53:41;0.57;;;0.50;;
74223;SDS011;62585;49.706;18.216;2022-10-31T04:56:07;0.00;;;0.00;;
74223;SDS011;62585;49.706;18.216;2022-10-31T04:58:32;1.67;;;1.35;;
74223;SDS011;62585;49.706;18.216;2022-10-31T05:00:58;0.00;;;0.00;;
74223;SDS011;62585;49.706;18.216;2022-10-31T05:03:23;1.38;;;1.02;;
74223;SDS011;62585;49.706;18.216;2022-10-31T05:05:50;0.10;;;0.10;;
74223;SDS011;62585;49.706;18.216;2022-10-31T05:08:15;0.00;;;0.00;;
74223;SDS011;62585;49.706;18.216;2022-10-31T05:10:41;0.38;;;0.38;;
74223;SDS011;62585;49.706;18.216;2022-10-31T05:13:07;0.30;;;0.30;;
74223;SDS011;62585;49.706;18.216;2022-10-31T05:15:33;0.10;;;0.10;;
74223;SDS011;62585;49.706;18.216;2022-10-31T05:17:58;0.85;;;0.85;;
74223;SDS011;62585;49.706;18.216;2022-10-31T05:20:25;1.15;;;0.73;;
74223;SDS011;62585;49.706;18.216;2022-10-31T05:22:53;1.15;;;1.05;;
74223;SDS011;62585;49.706;18.216;2022-10-31T05:25:21;0.28;;;0.28;;
74223;SDS011;62585;49.706;18.216;2022-10-31T05:27:49;0.40;;;0.40;;
74223;SDS011;62585;49.706;18.216;2022-10-31T05:32:47;0.32;;;0.32;;
74223;SDS011;62585;49.706;18.216;2022-10-31T05:35:15;2.97;;;0.43;;
74223;SDS011;62585;49.706;18.216;2022-10-31T05:37:43;0.28;;;0.28;;
74223;SDS011;62585;49.706;18.216;2022-10-31T05:40:10;0.43;;;0.43;;
74223;SDS011;62585;49.706;18.216;2022-10-31T05:42:40;0.22;;;0.22;;
74223;SDS011;62585;49.706;18.216;2022-10-31T05:45:08;2.22;;;1.55;;
74223;SDS011;62585;49.706;18.216;2022-10-31T05:47:35;0.43;;;0.35;;
74223;SDS011;62585;49.706;18.216;2022-10-31T05:50:00;0.28;;;0.10;;
74223;SDS011;62585;49.706;18.216;2022-10-31T05:52:26;0.20;;;0.20;;
74223;SDS011;62585;49.706;18.216;2022-10-31T05:54:52;3.50;;;0.55;;
74223;SDS011;62585;49.706;18.216;2022-10-31T05:57:18;0.28;;;0.28;;
74223;SDS011;62585;49.706;18.216;2022-10-31T05:59:43;0.08;;;0.08;;
74223;SDS011;62585;49.706;18.216;2022-10-31T06:02:09;1.60;;;1.08;;
74223;SDS011;62585;49.706;18.216;2022-10-31T06:04:35;0.47;;;0.43;;
74223;SDS011;62585;49.706;18.216;2022-10-31T06:07:00;0.00;;;0.00;;
74223;SDS011;62585;49.706;18.216;2022-10-31T06:09:26;0.08;;;0.08;;
74223;SDS011;62585;49.706;18.216;2022-10-31T06:11:52;1.33;;;0.77;;
74223;SDS011;62585;49.706;18.216;2022-10-31T06:14:17;0.32;;;0.32;;
74223;SDS011;62585;49.706;18.216;2022-10-31T06:16:43;0.30;;;0.20;;
74223;SDS011;62585;49.706;18.216;2022-10-31T06:19:09;2.63;;;1.92;;
74223;SDS011;62585;49.706;18.216;2022-10-31T06:21:34;0.75;;;0.75;;
74223;SDS011;62585;49.706;18.216;2022-10-31T06:24:00;1.38;;;1.13;;
74223;SDS011;62585;49.706;18.216;2022-10-31T06:26:26;0.57;;;0.57;;
74223;SDS011;62585;49.706;18.216;2022-10-31T06:28:51;1.73;;;1.30;;
74223;SDS011;62585;49.706;18.216;2022-10-31T06:31:17;0.90;;;0.55;;
74223;SDS011;62585;49.706;18.216;2022-10-31T06:33:43;0.00;;;0.00;;
74223;SDS011;62585;49.706;18.216;2022-10-31T06:36:09;1.55;;;1.10;;
74223;SDS011;62585;49.706;18.216;2022-10-31T06:38:35;0.10;;;0.10;;
74223;SDS011;62585;49.706;18.216;2022-10-31T06:41:04;5.03;;;1.95;;
74223;SDS011;62585;49.706;18.216;2022-10-31T06:43:31;0.65;;;0.65;;
74223;SDS011;62585;49.706;18.216;2022-10-31T06:45:57;1.48;;;1.10;;
74223;SDS011;62585;49.706;18.216;2022-10-31T06:48:23;3.63;;;1.15;;
74223;SDS011;62585;49.706;18.216;2022-10-31T06:50:49;0.10;;;0.10;;
74223;SDS011;62585;49.706;18.216;2022-10-31T06:53:14;4.32;;;3.95;;
74223;SDS011;62585;49.706;18.216;2022-10-31T06:55:40;0.00;;;0.00;;
74223;SDS011;62585;49.706;18.216;2022-10-31T06:58:08;2.55;;;0.98;;
74223;SDS011;62585;49.706;18.216;2022-10-31T07:00:35;0.73;;;0.57;;
74223;SDS011;62585;49.706;18.216;2022-10-31T07:03:04;1.35;;;0.95;;
74223;SDS011;62585;49.706;18.216;2022-10-31T07:05:31;4.30;;;2.47;;
74223;SDS011;62585;49.706;18.216;2022-10-31T07:07:59;2.72;;;1.02;;
74223;SDS011;62585;49.706;18.216;2022-10-31T07:10:27;0.30;;;0.30;;
74223;SDS011;62585;49.706;18.216;2022-10-31T07:12:57;0.35;;;0.35;;
74223;SDS011;62585;49.706;18.216;2022-10-31T07:15:25;0.85;;;0.35;;
74223;SDS011;62585;49.706;18.216;2022-10-31T07:17:52;0.10;;;0.10;;
74223;SDS011;62585;49.706;18.216;2022-10-31T07:20:18;0.25;;;0.25;;
74223;SDS011;62585;49.706;18.216;2022-10-31T07:22:44;2.10;;;1.45;;
74223;SDS011;62585;49.706;18.216;2022-10-31T07:25:10;1.30;;;0.82;;
74223;SDS011;62585;49.706;18.216;2022-10-31T07:27:37;0.28;;;0.28;;
74223;SDS011;62585;49.706;18.216;2022-10-31T07:30:07;1.83;;;1.70;;
74223;SDS011;62585;49.706;18.216;2022-10-31T07:32:41;0.35;;;0.35;;
74223;SDS011;62585;49.706;18.216;2022-10-31T07:35:08;0.08;;;0.08;;
74223;SDS011;62585;49.706;18.216;2022-10-31T07:37:36;4.72;;;2.45;;
74223;SDS011;62585;49.706;18.216;2022-10-31T07:40:05;4.50;;;1.80;;
74223;SDS011;62585;49.706;18.216;2022-10-31T07:42:39;0.90;;;0.90;;
74223;SDS011;62585;49.706;18.216;2022-10-31T07:45:10;1.38;;;1.27;;
74223;SDS011;62585;49.706;18.216;2022-10-31T07:47:45;3.10;;;1.08;;
74223;SDS011;62585;49.706;18.216;2022-10-31T07:50:13;0.15;;;0.15;;
74223;SDS011;62585;49.706;18.216;2022-10-31T07:52:40;0.10;;;0.10;;
74223;SDS011;62585;49.706;18.216;2022-10-31T07:55:06;1.80;;;0.73;;
74223;SDS011;62585;49.706;18.216;2022-10-31T07:57:33;0.05;;;0.05;;
74223;SDS011;62585;49.706;18.216;2022-10-31T07:59:59;1.10;;;1.10;;
74223;SDS011;62585;49.706;18.216;2022-10-31T08:02:25;6.60;;;1.55;;
74223;SDS011;62585;49.706;18.216;2022-10-31T08:04:51;3.10;;;0.73;;
74223;SDS011;62585;49.706;18.216;2022-10-31T08:07:17;0.25;;;0.25;;
74223;SDS011;62585;49.706;18.216;2022-10-31T08:09:43;1.10;;;0.70;;
74223;SDS011;62585;49.706;18.216;2022-10-31T08:12:09;5.15;;;2.13;;
74223;SDS011;62585;49.706;18.216;2022-10-31T08:14:34;0.00;;;0.00;;
74223;SDS011;62585;49.706;18.216;2022-10-31T08:17:00;1.48;;;1.15;;
74223;SDS011;62585;49.706;18.216;2022-10-31T08:19:26;0.00;;;0.00;;
74223;SDS011;62585;49.706;18.216;2022-10-31T08:21:52;0.10;;;0.10;;
74223;SDS011;62585;49.706;18.216;2022-10-31T08:24:20;0.52;;;0.47;;
74223;SDS011;62585;49.706;18.216;2022-10-31T08:26:46;1.30;;;0.25;;
74223;SDS011;62585;49.706;18.216;2022-10-31T08:29:12;0.55;;;0.55;;
74223;SDS011;62585;49.706;18.216;2022-10-31T08:31:40;0.10;;;0.10;;
74223;SDS011;62585;49.706;18.216;2022-10-31T08:34:06;1.33;;;0.95;;
74223;SDS011;62585;49.706;18.216;2022-10-31T08:36:32;5.47;;;4.88;;
74223;SDS011;62585;49.706;18.216;2022-10-31T08:38:58;1.17;;;0.60;;
74223;SDS011;62585;49.706;18.216;2022-10-31T08:41:24;0.10;;;0.10;;
74223;SDS011;62585;49.706;18.216;2022-10-31T08:43:50;0.30;;;0.30;;
74223;SDS011;62585;49.706;18.216;2022-10-31T08:46:16;0.50;;;0.50;;
74223;SDS011;62585;49.706;18.216;2022-10-31T08:48:42;1.55;;;1.00;;
74223;SDS011;62585;49.706;18.216;2022-10-31T08:51:09;0.03;;;0.03;;
74223;SDS011;62585;49.706;18.216;2022-10-31T08:53:35;0.30;;;0.30;;
74223;SDS011;62585;49.706;18.216;2022-10-31T08:56:01;0.65;;;0.32;;
74223;SDS011;62585;49.706;18.216;2022-10-31T08:58:27;0.20;;;0.20;;
74223;SDS011;62585;49.706;18.216;2022-10-31T09:00:53;0.05;;;0.05;;
74223;SDS011;62585;49.706;18.216;2022-10-31T09:03:25;1.90;;;1.27;;
74223;SDS011;62585;49.706;18.216;2022-10-31T09:05:56;2.65;;;0.85;;
74223;SDS011;62585;49.706;18.216;2022-10-31T09:08:26;1.02;;;1.00;;
74223;SDS011;62585;49.706;18.216;2022-10-31T09:10:56;0.00;;;0.00;;
74223;SDS011;62585;49.706;18.216;2022-10-31T09:13:22;0.45;;;0.45;;
74223;SDS011;62585;49.706;18.216;2022-10-31T09:15:48;0.00;;;0.00;;
74223;SDS011;62585;49.706;18.216;2022-10-31T09:18:16;0.10;;;0.10;;
74223;SDS011;62585;49.706;18.216;2022-10-31T09:20:44;0.95;;;0.88;;
74223;SDS011;62585;49.706;18.216;2022-10-31T09:23:13;0.20;;;0.20;;
74223;SDS011;62585;49.706;18.216;2022-10-31T09:25:41;0.47;;;0.40;;
74223;SDS011;62585;49.706;18.216;2022-10-31T09:28:08;0.10;;;0.10;;
74223;SDS011;62585;49.706;18.216;2022-10-31T09:30:36;1.02;;;0.73;;
74223;SDS011;62585;49.706;18.216;2022-10-31T09:33:03;2.05;;;0.95;;
74223;SDS011;62585;49.706;18.216;2022-10-31T09:35:31;1.58;;;1.20;;
74223;SDS011;62585;49.706;18.216;2022-10-31T09:37:58;0.88;;;0.88;;
74223;SDS011;62585;49.706;18.216;2022-10-31T09:40:29;2.00;;;0.75;;
74223;SDS011;62585;49.706;18.216;2022-10-31T09:43:22;2.25;;;0.88;;
74223;SDS011;62585;49.706;18.216;2022-10-31T09:48:52;2.95;;;2.22;;
74223;SDS011;62585;49.706;18.216;2022-10-31T09:51:36;0.10;;;0.10;;
74223;SDS011;62585;49.706;18.216;2022-10-31T09:54:08;0.10;;;0.10;;
74223;SDS011;62585;49.706;18.216;2022-10-31T09:59:16;0.45;;;0.43;;
74223;SDS011;62585;49.706;18.216;2022-10-31T10:02:00;0.70;;;0.65;;
74223;SDS011;62585;49.706;18.216;2022-10-31T10:07:19;0.47;;;0.47;;
74223;SDS011;62585;49.706;18.216;2022-10-31T10:10:00;0.63;;;0.63;;
74223;SDS011;62585;49.706;18.216;2022-10-31T10:15:13;0.93;;;0.60;;
74223;SDS011;62585;49.706;18.216;2022-10-31T10:18:01;0.45;;;0.45;;
74223;SDS011;62585;49.706;18.216;2022-10-31T10:23:48;0.10;;;0.10;;
74223;SDS011;62585;49.706;18.216;2022-10-31T10:26:23;1.88;;;1.77;;
74223;SDS011;62585;49.706;18.216;2022-10-31T10:28:56;0.00;;;0.00;;
74223;SDS011;62585;49.706;18.216;2022-10-31T10:31:27;0.15;;;0.15;;
74223;SDS011;62585;49.706;18.216;2022-10-31T10:34:01;0.20;;;0.20;;
74223;SDS011;62585;49.706;18.216;2022-10-31T10:36:37;1.23;;;0.85;;
74223;SDS011;62585;49.706;18.216;2022-10-31T10:39:14;0.10;;;0.10;;
74223;SDS011;62585;49.706;18.216;2022-10-31T10:41:45;9.65;;;9.13;;
74223;SDS011;62585;49.706;18.216;2022-10-31T10:44:33;0.10;;;0.10;;
74223;SDS011;62585;49.706;18.216;2022-10-31T10:47:20;0.95;;;0.47;;
74223;SDS011;62585;49.706;18.216;2022-10-31T10:50:10;0.20;;;0.20;;
74223;SDS011;62585;49.706;18.216;2022-10-31T10:53:04;0.28;;;0.28;;
74223;SDS011;62585;49.706;18.216;2022-10-31T10:58:12;0.47;;;0.47;;
74223;SDS011;62585;49.706;18.216;2022-10-31T11:00:39;0.05;;;0.05;;
74223;SDS011;62585;49.706;18.216;2022-10-31T11:03:06;2.00;;;0.75;;
74223;SDS011;62585;49.706;18.216;2022-10-31T11:05:33;0.05;;;0.05;;
74223;SDS011;62585;49.706;18.216;2022-10-31T11:08:02;0.20;;;0.20;;
74223;SDS011;62585;49.706;18.216;2022-10-31T11:10:30;0.03;;;0.03;;
74223;SDS011;62585;49.706;18.216;2022-10-31T11:15:38;0.20;;;0.20;;
74223;SDS011;62585;49.706;18.216;2022-10-31T11:18:19;0.50;;;0.43;;
74223;SDS011;62585;49.706;18.216;2022-10-31T11:20:57;0.45;;;0.43;;
74223;SDS011;62585;49.706;18.216;2022-10-31T11:23:26;0.05;;;0.05;;
74223;SDS011;62585;49.706;18.216;2022-10-31T11:28:18;0.10;;;0.10;;
74223;SDS011;62585;49.706;18.216;2022-10-31T11:30:54;0.57;;;0.57;;
74223;SDS011;62585;49.706;18.216;2022-10-31T11:33:34;0.10;;;0.10;;
74223;SDS011;62585;49.706;18.216;2022-10-31T11:36:04;0.20;;;0.15;;
74223;SDS011;62585;49.706;18.216;2022-10-31T11:39:02;0.00;;;0.00;;
74223;SDS011;62585;49.706;18.216;2022-10-31T11:41:30;0.10;;;0.10;;
74223;SDS011;62585;49.706;18.216;2022-10-31T11:49:00;0.20;;;0.20;;
74223;SDS011;62585;49.706;18.216;2022-10-31T11:51:30;4.28;;;4.07;;
74223;SDS011;62585;49.706;18.216;2022-10-31T11:53:58;3.53;;;3.42;;
74223;SDS011;62585;49.706;18.216;2022-10-31T11:56:26;0.70;;;0.70;;
74223;SDS011;62585;49.706;18.216;2022-10-31T11:59:03;0.10;;;0.10;;
74223;SDS011;62585;49.706;18.216;2022-10-31T12:01:32;0.10;;;0.10;;
74223;SDS011;62585;49.706;18.216;2022-10-31T12:06:37;0.10;;;0.10;;
74223;SDS011;62585;49.706;18.216;2022-10-31T12:09:18;0.47;;;0.47;;
74223;SDS011;62585;49.706;18.216;2022-10-31T12:11:56;0.10;;;0.10;;
74223;SDS011;62585;49.706;18.216;2022-10-31T12:17:40;1.10;;;0.57;;
74223;SDS011;62585;49.706;18.216;2022-10-31T12:26:08;0.10;;;0.10;;
74223;SDS011;62585;49.706;18.216;2022-10-31T12:28:41;0.05;;;0.05;;
74223;SDS011;62585;49.706;18.216;2022-10-31T12:36:37;0.17;;;0.17;;
74223;SDS011;62585;49.706;18.216;2022-10-31T12:59:47;0.00;;;0.00;;
74223;SDS011;62585;49.706;18.216;2022-10-31T13:02:19;0.10;;;0.10;;
74223;SDS011;62585;49.706;18.216;2022-10-31T13:07:21;0.10;;;0.10;;
74223;SDS011;62585;49.706;18.216;2022-10-31T13:09:56;0.45;;;0.30;;
74223;SDS011;62585;49.706;18.216;2022-10-31T13:12:32;0.10;;;0.10;;
74223;SDS011;62585;49.706;18.216;2022-10-31T13:15:18;0.10;;;0.10;;
74223;SDS011;62585;49.706;18.216;2022-10-31T13:17:48;0.10;;;0.10;;
74223;SDS011;62585;49.706;18.216;2022-10-31T13:20:25;0.10;;;0.10;;
74223;SDS011;62585;49.706;18.216;2022-10-31T13:25:55;0.17;;;0.17;;
74223;SDS011;62585;49.706;18.216;2022-10-31T13:31:05;0.10;;;0.10;;
74223;SDS011;62585;49.706;18.216;2022-10-31T13:36:07;0.17;;;0.17;;
74223;SDS011;62585;49.706;18.216;2022-10-31T13:38:51;0.00;;;0.00;;
74223;SDS011;62585;49.706;18.216;2022-10-31T13:44:26;0.25;;;0.25;;
74223;SDS011;62585;49.706;18.216;2022-10-31T13:46:54;0.10;;;0.10;;
74223;SDS011;62585;49.706;18.216;2022-10-31T13:54:36;0.10;;;0.10;;
74223;SDS011;62585;49.706;18.216;2022-10-31T13:57:29;0.10;;;0.10;;
74223;SDS011;62585;49.706;18.216;2022-10-31T14:00:00;0.10;;;0.10;;
74223;SDS011;62585;49.706;18.216;2022-10-31T14:02:34;0.10;;;0.10;;
74223;SDS011;62585;49.706;18.216;2022-10-31T14:05:03;0.00;;;0.00;;
74223;SDS011;62585;49.706;18.216;2022-10-31T14:07:30;0.10;;;0.10;;
74223;SDS011;62585;49.706;18.216;2022-10-31T14:09:59;0.08;;;0.08;;
74223;SDS011;62585;49.706;18.216;2022-10-31T14:12:46;0.00;;;0.00;;
74223;SDS011;62585;49.706;18.216;2022-10-31T14:15:23;0.10;;;0.10;;
74223;SDS011;62585;49.706;18.216;2022-10-31T14:17:52;0.00;;;0.00;;
74223;SDS011;62585;49.706;18.216;2022-10-31T14:20:36;0.00;;;0.00;;
74223;SDS011;62585;49.706;18.216;2022-10-31T14:28:42;2.55;;;0.30;;
74223;SDS011;62585;49.706;18.216;2022-10-31T14:34:01;0.93;;;0.85;;
74223;SDS011;62585;49.706;18.216;2022-10-31T14:36:33;0.20;;;0.20;;
74223;SDS011;62585;49.706;18.216;2022-10-31T14:39:20;0.00;;;0.00;;
74223;SDS011;62585;49.706;18.216;2022-10-31T14:47:15;13.32;;;6.68;;
74223;SDS011;62585;49.706;18.216;2022-10-31T14:52:31;11.07;;;6.53;;
74223;SDS011;62585;49.706;18.216;2022-10-31T14:55:00;11.48;;;6.75;;
74223;SDS011;62585;49.706;18.216;2022-10-31T14:57:28;12.23;;;6.07;;
74223;SDS011;62585;49.706;18.216;2022-10-31T15:00:07;11.48;;;6.20;;
74223;SDS011;62585;49.706;18.216;2022-10-31T15:02:36;13.20;;;5.82;;
74223;SDS011;62585;49.706;18.216;2022-10-31T15:05:07;13.85;;;7.22;;
74223;SDS011;62585;49.706;18.216;2022-10-31T15:07:34;15.40;;;6.82;;
74223;SDS011;62585;49.706;18.216;2022-10-31T15:10:02;11.68;;;7.28;;
74223;SDS011;62585;49.706;18.216;2022-10-31T15:12:35;12.43;;;7.18;;
74223;SDS011;62585;49.706;18.216;2022-10-31T15:15:13;2.47;;;2.33;;
74223;SDS011;62585;49.706;18.216;2022-10-31T15:17:47;0.10;;;0.10;;
74223;SDS011;62585;49.706;18.216;2022-10-31T15:20:18;0.03;;;0.03;;
74223;SDS011;62585;49.706;18.216;2022-10-31T15:22:46;0.10;;;0.10;;
74223;SDS011;62585;49.706;18.216;2022-10-31T15:25:17;0.00;;;0.00;;
74223;SDS011;62585;49.706;18.216;2022-10-31T15:27:45;1.02;;;1.02;;
74223;SDS011;62585;49.706;18.216;2022-10-31T15:30:18;0.10;;;0.10;;
74223;SDS011;62585;49.706;18.216;2022-10-31T15:32:48;0.10;;;0.10;;
74223;SDS011;62585;49.706;18.216;2022-10-31T15:35:27;2.22;;;2.13;;
74223;SDS011;62585;49.706;18.216;2022-10-31T15:37:56;0.10;;;0.10;;
74223;SDS011;62585;49.706;18.216;2022-10-31T15:40:24;0.10;;;0.10;;
74223;SDS011;62585;49.706;18.216;2022-10-31T15:42:56;0.10;;;0.10;;
74223;SDS011;62585;49.706;18.216;2022-10-31T15:45:25;0.10;;;0.10;;
74223;SDS011;62585;49.706;18.216;2022-10-31T15:47:59;0.10;;;0.10;;
74223;SDS011;62585;49.706;18.216;2022-10-31T15:50:30;1.77;;;1.67;;
74223;SDS011;62585;49.706;18.216;2022-10-31T15:53:00;0.10;;;0.10;;
74223;SDS011;62585;49.706;18.216;2022-10-31T15:55:27;0.30;;;0.30;;
74223;SDS011;62585;49.706;18.216;2022-10-31T15:57:58;2.05;;;1.05;;
74223;SDS011;62585;49.706;18.216;2022-10-31T16:00:35;0.00;;;0.00;;
74223;SDS011;62585;49.706;18.216;2022-10-31T16:03:19;0.00;;;0.00;;
74223;SDS011;62585;49.706;18.216;2022-10-31T16:08:26;0.10;;;0.10;;
74223;SDS011;62585;49.706;18.216;2022-10-31T16:10:57;0.08;;;0.08;;
74223;SDS011;62585;49.706;18.216;2022-10-31T16:13:30;0.00;;;0.00;;
74223;SDS011;62585;49.706;18.216;2022-10-31T16:16:13;0.10;;;0.10;;
74223;SDS011;62585;49.706;18.216;2022-10-31T16:18:41;0.43;;;0.43;;
74223;SDS011;62585;49.706;18.216;2022-10-31T16:21:07;0.10;;;0.10;;
74223;SDS011;62585;49.706;18.216;2022-10-31T16:23:34;0.05;;;0.05;;
74223;SDS011;62585;49.706;18.216;2022-10-31T16:26:05;0.10;;;0.10;;
74223;SDS011;62585;49.706;18.216;2022-10-31T16:28:32;0.00;;;0.00;;
74223;SDS011;62585;49.706;18.216;2022-10-31T16:30:58;0.15;;;0.15;;
74223;SDS011;62585;49.706;18.216;2022-10-31T16:35:54;0.20;;;0.20;;
74223;SDS011;62585;49.706;18.216;2022-10-31T16:38:23;0.13;;;0.13;;
74223;SDS011;62585;49.706;18.216;2022-10-31T16:40:50;0.20;;;0.20;;
74223;SDS011;62585;49.706;18.216;2022-10-31T16:43:17;3.35;;;1.70;;
74223;SDS011;62585;49.706;18.216;2022-10-31T16:45:45;0.73;;;0.73;;
74223;SDS011;62585;49.706;18.216;2022-10-31T16:48:13;2.80;;;2.58;;
74223;SDS011;62585;49.706;18.216;2022-10-31T16:50:42;1.08;;;0.55;;
74223;SDS011;62585;49.706;18.216;2022-10-31T16:53:09;0.30;;;0.30;;
74223;SDS011;62585;49.706;18.216;2022-10-31T16:55:41;0.10;;;0.10;;
74223;SDS011;62585;49.706;18.216;2022-10-31T16:58:12;0.10;;;0.10;;
74223;SDS011;62585;49.706;18.216;2022-10-31T17:00:42;0.85;;;0.85;;
74223;SDS011;62585;49.706;18.216;2022-10-31T17:03:07;0.88;;;0.88;;
74223;SDS011;62585;49.706;18.216;2022-10-31T17:05:34;0.22;;;0.22;;
74223;SDS011;62585;49.706;18.216;2022-10-31T17:10:27;0.20;;;0.20;;
74223;SDS011;62585;49.706;18.216;2022-10-31T17:12:53;0.05;;;0.05;;
74223;SDS011;62585;49.706;18.216;2022-10-31T17:15:21;0.00;;;0.00;;
74223;SDS011;62585;49.706;18.216;2022-10-31T17:17:48;0.22;;;0.22;;
74223;SDS011;62585;49.706;18.216;2022-10-31T17:20:18;0.25;;;0.25;;
74223;SDS011;62585;49.706;18.216;2022-10-31T17:22:52;0.32;;;0.32;;
74223;SDS011;62585;49.706;18.216;2022-10-31T17:25:20;0.10;;;0.10;;
74223;SDS011;62585;49.706;18.216;2022-10-31T17:27:47;0.05;;;0.05;;